Huvudsida
METAR-TAF:

METAR-TAF

Flygplatser :

Cuneo, Italien

latitud: 44-32-47N, longitud: 007-37-20E, höjd: 386 m

Aktuellt väderrapport

Denna rapport gjordes för 27 minuter sedan, klockan 13:50 UTC
Vind 5 kt varierande vindriktning
Temperatur 30°C
Fuktighet 40%
Tryck 1019 hPa
Sikt 10 km eller mer
Inga moln under 1 500 m eller inga cumulonimbus

METAR: LIMZ 241350Z VRB05KT CAVOK 30/15 Q1019

Tid: 16:17 (14:17 UTC)

Väderprognos

Denna rapport gjordes för 3 timmar och 17 minuter sedan, klockan 11:00 UTC
Prognos gäller från 24 kl. 12 UTC till 25 kl. 12 UTC
Vind 5 kt varierande vindriktning
Sikt 10 km eller mer
Inga moln under 1 500 m eller inga cumulonimbus

TAF: LIMZ 241100Z 2412/2512 VRB05KT CAVOK

Aktuella väderrapporter och prognoser från 4000 flygplatser (METAR- och TAF-rapporter).

De tillgängliga stationerna syns som gula och röda prickar på kartan.

För musen över prickarna för att se namnen på stationerna.

Klicka sedan för att få väderrapporter och prognoser.

För att ändra kartan: Klicka på de gröna knapparna med ett svart kors på för att zooma in; den gröna knappen med ett streck på för att zooma ut; eller på de gröna pilarna för angränsande kartor.


METAR-TAF: